Time;durP1;ratioP1;P1;durP2;ratioP2;P2;SDS_P1;SDS_P2;PMS_P1;PMS_P2;Temp;Humidity;BMP_temperature;BMP_pressure;BME280_temperature;BME280_humidity;BME280_pressure;Samples;Min_cycle;Max_cycle;Signal;HPM_P1;HPM_P2
2022/10/15 00:02:25;;;;;;;4.37;2.83;;;;;;;;;;5038857;28;20202;-75
2022/10/15 00:04:51;;;;;;;4.13;2.60;;;;;;;;;;5044133;28;20202;-75
2022/10/15 00:07:17;;;;;;;4.67;2.93;;;;;;;;;;5032674;28;20607;-75
2022/10/15 00:09:43;;;;;;;11.03;6.10;;;;;;;;;;5045709;28;20189;-75
2022/10/15 00:12:09;;;;;;;6.23;3.50;;;;;;;;;;5048332;28;20174;-75
2022/10/15 00:14:36;;;;;;;4.00;2.70;;;;;;;;;;5046966;28;20541;-75
2022/10/15 00:17:02;;;;;;;2.50;1.80;;;;;;;;;;5043382;28;20265;-75
2022/10/15 00:19:29;;;;;;;11.93;5.23;;;;;;;;;;5044742;28;20316;-75
2022/10/15 00:21:55;;;;;;;7.60;3.60;;;;;;;;;;5041707;28;20213;-75
2022/10/15 00:24:21;;;;;;;10.80;5.00;;;;;;;;;;5047683;28;20205;-75
2022/10/15 00:26:47;;;;;;;4.07;2.27;;;16.00;99.90;;;;;;5047875;28;20174;-75
2022/10/15 00:29:12;;;;;;;4.17;2.40;;;16.30;99.90;;;;;;5048346;28;20170;-75
2022/10/15 00:31:38;;;;;;;3.67;2.10;;;16.20;99.90;;;;;;5044258;28;20185;-75
2022/10/15 00:34:04;;;;;;;2.33;1.43;;;16.20;99.90;;;;;;5033007;28;20205;-74
2022/10/15 00:36:32;;;;;;;6.83;3.30;;;16.20;99.90;;;;;;5038518;28;20194;-75
2022/10/15 00:38:59;;;;;;;6.30;2.00;;;16.20;99.90;;;;;;5045780;28;20189;-75
2022/10/15 00:41:31;;;;;;;2.33;1.33;;;16.20;99.90;;;;;;5034568;28;20257;-75
2022/10/15 00:43:59;;;;;;;2.23;1.40;;;16.20;99.90;;;;;;5047016;28;20205;-75
2022/10/15 00:46:34;;;;;;;3.07;1.80;;;16.20;99.90;;;;;;5046590;28;20177;-75
2022/10/15 00:49:16;;;;;;;2.77;1.33;;;16.20;99.90;;;;;;5047975;28;20253;-74
2022/10/15 00:51:46;;;;;;;3.00;1.50;;;16.20;99.90;;;;;;5046705;28;20199;-74
2022/10/15 00:54:13;;;;;;;2.07;1.47;;;16.20;99.90;;;;;;5047175;28;20272;-75
2022/10/15 00:56:42;;;;;;;2.17;1.53;;;16.20;99.90;;;;;;5045094;28;20189;-75
2022/10/15 00:59:08;;;;;;;2.13;1.47;;;16.20;99.90;;;;;;5038103;28;20190;-75
2022/10/15 01:01:34;;;;;;;17.20;7.30;;;16.30;99.90;;;;;;5043440;28;20653;-74
2022/10/15 01:04:01;;;;;;;5.63;3.30;;;16.20;99.90;;;;;;5046335;28;20202;-74
2022/10/15 01:06:28;;;;;;;2.30;1.80;;;16.30;99.90;;;;;;5047668;28;20185;-75
2022/10/15 01:08:54;;;;;;;1.67;1.30;;;16.20;99.90;;;;;;5046428;28;20227;-75
2022/10/15 01:11:38;;;;;;;2.30;1.57;;;16.30;99.90;;;;;;5011822;28;20187;-75
2022/10/15 01:14:36;;;;;;;2.93;1.50;;;16.30;99.90;;;;;;5058459;28;20221;-75
2022/10/15 01:17:05;;;;;;;1.73;1.57;;;16.30;99.90;;;;;;5036584;28;20207;-75
2022/10/15 01:20:00;;;;;;;2.13;1.47;;;16.30;99.90;;;;;;5044301;28;20173;-75
2022/10/15 01:22:46;;;;;;;2.83;1.40;;;16.30;99.90;;;;;;5026489;28;20202;-75
2022/10/15 01:25:40;;;;;;;1.67;1.30;;;16.30;99.90;;;;;;5028186;28;20209;-75
2022/10/15 01:28:32;;;;;;;1.83;1.67;;;16.30;99.90;;;;;;5008059;28;20189;-75
2022/10/15 01:31:11;;;;;;;2.07;1.70;;;16.30;99.90;;;;;;5057028;28;20183;-75
2022/10/15 01:33:48;;;;;;;1.97;1.50;;;16.30;99.90;;;;;;5041906;28;20211;-75
2022/10/15 01:36:27;;;;;;;2.70;1.33;;;16.30;99.90;;;;;;5046195;28;20273;-75
2022/10/15 01:39:28;;;;;;;2.40;1.40;;;16.30;99.90;;;;;;5029812;28;20185;-75
2022/10/15 01:42:06;;;;;;;2.60;1.57;;;16.30;99.90;;;;;;5045542;28;20232;-75
2022/10/15 01:44:39;;;;;;;1.87;1.47;;;16.30;99.90;;;;;;5037408;28;20206;-75
2022/10/15 01:47:29;;;;;;;4.47;2.50;;;16.30;99.90;;;;;;5033024;28;20212;-75
2022/10/15 01:49:59;;;;;;;4.13;1.80;;;16.30;99.90;;;;;;5038692;28;20646;-75
2022/10/15 01:52:29;;;;;;;1.90;1.70;;;16.30;99.90;;;;;;5027305;28;20285;-75
2022/10/15 01:54:56;;;;;;;2.53;1.70;;;16.30;99.90;;;;;;5027475;28;20175;-74
2022/10/15 01:57:26;;;;;;;1.70;1.60;;;16.30;99.90;;;;;;5036128;28;20185;-75
2022/10/15 01:59:53;;;;;;;3.03;1.57;;;16.30;99.90;;;;;;5044211;28;20197;-75
2022/10/15 02:02:21;;;;;;;1.80;1.70;;;16.30;99.90;;;;;;5036535;28;20234;-75
2022/10/15 02:04:47;;;;;;;3.07;1.97;;;16.30;99.90;;;;;;5045096;28;20260;-75
2022/10/15 02:07:55;;;;;;;2.27;2.07;;;16.40;99.90;;;;;;5044293;28;20181;-75
2022/10/15 02:10:30;;;;;;;3.43;2.17;;;16.40;99.90;;;;;;5017469;28;20277;-75
2022/10/15 02:13:12;;;;;;;3.60;2.47;;;16.40;99.90;;;;;;5039422;28;20570;-74
2022/10/15 02:16:05;;;;;;;2.43;2.20;;;16.40;99.90;;;;;;5031989;28;20657;-75
2022/10/15 02:18:40;;;;;;;2.30;2.10;;;16.40;99.90;;;;;;5044563;28;20181;-75
2022/10/15 02:21:17;;;;;;;2.20;2.00;;;16.40;99.90;;;;;;5043116;28;20205;-75
2022/10/15 02:23:55;;;;;;;2.27;2.07;;;16.40;99.90;;;;;;5048317;28;20240;-74
2022/10/15 02:26:25;;;;;;;2.53;2.33;;;;;;;;;;5056611;28;20607;-75
2022/10/15 02:28:54;;;;;;;2.50;2.30;;;;;;;;;;5046963;28;20923;-75
2022/10/15 02:31:22;;;;;;;2.37;2.17;;;;;;;;;;5046300;28;20185;-75
2022/10/15 02:33:49;;;;;;;2.50;2.20;;;;;;;;;;5047243;28;20206;-74
2022/10/15 02:36:16;;;;;;;2.57;2.30;;;;;;;;;;5041303;28;20825;-75
2022/10/15 02:38:43;;;;;;;2.90;2.20;;;;;;;;;;5048789;28;20680;-74
2022/10/15 02:41:10;;;;;;;2.60;2.40;;;;;;;;;;5038317;28;20202;-74
2022/10/15 02:43:37;;;;;;;3.30;2.50;;;;;;;;;;5045707;28;20617;-74
2022/10/15 02:46:04;;;;;;;2.30;2.10;;;;;;;;;;5043785;28;20213;-75
2022/10/15 02:48:30;;;;;;;3.53;2.30;;;;;;;;;;5037351;28;20285;-75
2022/10/15 02:50:56;;;;;;;3.10;2.17;;;;;;;;;;5049225;28;20182;-75
2022/10/15 02:53:23;;;;;;;3.13;2.20;;;;;;;;;;5046425;28;20576;-75
2022/10/15 02:55:49;;;;;;;2.90;2.20;;;;;;;;;;5039755;28;20197;-75
2022/10/15 02:58:15;;;;;;;3.93;2.60;;;;;;;;;;5048222;28;20240;-75
2022/10/15 03:00:43;;;;;;;2.40;2.20;;;;;;;;;;5030392;28;20265;-75
2022/10/15 03:03:10;;;;;;;4.63;2.20;;;;;;;;;;5041805;28;20232;-75
2022/10/15 03:05:36;;;;;;;2.37;2.00;;;;;;;;;;5038583;28;20218;-75
2022/10/15 03:08:02;;;;;;;3.07;2.20;;;;;;;;;;5042676;28;20787;-75
2022/10/15 03:10:29;;;;;;;3.17;2.07;;;;;;;;;;5052010;28;20189;-75
2022/10/15 03:13:01;;;;;;;2.43;2.00;;;;;;;;;;5046206;28;20206;-75
2022/10/15 03:15:27;;;;;;;2.10;1.90;;;;;;;;;;5034535;28;20186;-75
2022/10/15 03:17:54;;;;;;;2.17;1.93;;;;;;;;;;5046445;28;20227;-75
2022/10/15 03:20:21;;;;;;;2.03;1.83;;;;;;;;;;5053117;28;20179;-75
2022/10/15 03:22:47;;;;;;;2.60;2.07;;;;;;;;;;5042997;28;20206;-75
2022/10/15 03:25:13;;;;;;;2.20;2.00;;;;;;;;;;5038200;28;20210;-75
2022/10/15 03:27:39;;;;;;;2.67;1.83;;;;;;;;;;5045675;28;20201;-75
2022/10/15 03:30:19;;;;;;;2.00;1.80;;;;;;;;;;5047230;28;20179;-75
2022/10/15 03:32:46;;;;;;;2.17;1.80;;;;;;;;;;5041598;28;20689;-75
2022/10/15 03:35:12;;;;;;;3.60;2.10;;;;;;;;;;5039875;28;20208;-75
2022/10/15 03:37:39;;;;;;;2.17;1.97;;;;;;;;;;5033561;28;20610;-75
2022/10/15 03:40:07;;;;;;;2.80;2.00;;;;;;;;;;5041184;28;20956;-75
2022/10/15 03:42:33;;;;;;;2.40;2.20;;;;;;;;;;5042676;28;20221;-74
2022/10/15 03:45:01;;;;;;;2.93;2.50;;;;;;;;;;5045931;28;20210;-74
2022/10/15 03:47:27;;;;;;;2.50;2.30;;;;;;;;;;5024925;28;20258;-74
2022/10/15 03:49:56;;;;;;;3.10;2.20;;;;;;;;;;5045934;28;20759;-74
2022/10/15 03:52:23;;;;;;;3.33;2.20;;;;;;;;;;5038675;28;20255;-75
2022/10/15 03:54:50;;;;;;;2.60;2.23;;;;;;;;;;5035807;28;20195;-75
2022/10/15 03:57:19;;;;;;;6.60;5.97;;;;;;;;;;5061659;28;20190;-75
2022/10/15 03:59:51;;;;;;;4.43;3.83;;;;;;;;;;5045378;28;20190;-75
2022/10/15 04:02:19;;;;;;;3.37;3.03;;;;;;;;;;5044721;28;20201;-75
2022/10/15 04:04:45;;;;;;;2.93;2.20;;;;;;;;;;5039925;28;20297;-75
2022/10/15 04:07:12;;;;;;;2.33;2.00;;;;;;;;;;5044563;28;20239;-75
2022/10/15 04:09:38;;;;;;;2.70;2.03;;;;;;;;;;5045345;28;20194;-75
2022/10/15 04:12:23;;;;;;;3.20;2.10;;;;;;;;;;5041891;28;20208;-75
2022/10/15 04:14:50;;;;;;;1.97;1.67;;;;;;;;;;5035346;28;20544;-75
2022/10/15 04:17:16;;;;;;;2.93;1.67;;;;;;;;;;5041775;28;20239;-75
2022/10/15 04:19:43;;;;;;;1.87;1.60;;;;;;;;;;5042816;28;20189;-75
2022/10/15 04:22:10;;;;;;;3.10;1.50;;;;;;;;;;5047847;28;20269;-75
2022/10/15 04:24:47;;;;;;;1.73;1.37;;;;;;;;;;5042653;28;20213;-75
2022/10/15 04:27:24;;;;;;;2.90;1.80;;;;;;;;;;5026108;28;20178;-75
2022/10/15 04:29:50;;;;;;;1.83;1.67;;;;;;;;;;5037606;28;20201;-75
2022/10/15 04:32:16;;;;;;;1.40;1.30;;;;;;;;;;5044168;28;21201;-75
2022/10/15 04:34:45;;;;;;;1.60;1.30;;;;;;;;;;5044590;28;20189;-75
2022/10/15 04:37:11;;;;;;;1.77;1.40;;;;;;;;;;5054138;28;20186;-75
2022/10/15 04:39:38;;;;;;;1.40;1.30;;;;;;;;;;5058764;28;20194;-75
2022/10/15 04:42:04;;;;;;;2.03;1.40;;;;;;;;;;5041279;28;20193;-75
2022/10/15 04:44:32;;;;;;;1.20;1.10;;;;;;;;;;5035054;28;20206;-75
2022/10/15 04:46:58;;;;;;;1.30;1.20;;;;;;;;;;5046462;28;20658;-75
2022/10/15 04:49:35;;;;;;;1.33;1.23;;;;;;;;;;5021922;28;20181;-75
2022/10/15 04:52:08;;;;;;;1.30;1.10;;;;;;;;;;5044735;28;20178;-75
2022/10/15 04:54:51;;;;;;;1.80;1.70;;;;;;;;;;5038906;28;20191;-75
2022/10/15 04:57:17;;;;;;;1.30;1.03;;;;;;;;;;5044949;28;20210;-75
2022/10/15 04:59:44;;;;;;;1.87;1.27;;;;;;;;;;5034541;28;20264;-75
2022/10/15 05:02:32;;;;;;;1.13;1.03;;;;;;;;;;5024638;28;20720;-75
2022/10/15 05:05:13;;;;;;;2.40;1.00;;;;;;;;;;5029580;28;20207;-75
2022/10/15 05:07:51;;;;;;;1.20;1.10;;;;;;;;;;5055663;28;20182;-75
2022/10/15 05:10:17;;;;;;;0.90;0.90;;;;;;;;;;5046072;28;20209;-75
2022/10/15 05:12:45;;;;;;;1.00;1.00;;;;;;;;;;5042824;28;20201;-75
2022/10/15 05:15:11;;;;;;;1.47;1.13;;;;;;;;;;5044169;28;20185;-75
2022/10/15 05:17:37;;;;;;;3.10;1.50;;;;;;;;;;5045757;28;20174;-75
2022/10/15 05:20:04;;;;;;;1.93;1.50;;;;;;;;;;5045040;28;20182;-75
2022/10/15 05:22:30;;;;;;;2.40;1.30;;;;;;;;;;5030427;28;20943;-75
2022/10/15 05:24:59;;;;;;;1.77;1.67;;;;;;;;;;5025689;28;20213;-76
2022/10/15 05:27:32;;;;;;;3.20;2.27;;;;;;;;;;5022607;28;20729;-77
2022/10/15 05:30:00;;;;;;;3.40;2.33;;;;;;;;;;5036400;28;20658;-76
2022/10/15 05:32:34;;;;;;;2.57;2.23;;;;;;;;;;5030859;28;20216;-74
2022/10/15 05:35:01;;;;;;;3.60;3.00;;;;;;;;;;5040546;28;20780;-74
2022/10/15 05:37:41;;;;;;;3.30;3.00;;;;;;;;;;5040954;28;20408;-74
2022/10/15 05:40:08;;;;;;;3.83;2.90;;;;;;;;;;5033509;28;20212;-74
2022/10/15 05:42:34;;;;;;;4.03;2.80;;;;;;;;;;5048283;28;20209;-74
2022/10/15 05:45:00;;;;;;;3.00;2.53;;;;;;;;;;5039406;28;20205;-74
2022/10/15 05:47:26;;;;;;;4.13;3.73;;;;;;;;;;5049553;28;20177;-74
2022/10/15 05:50:09;;;;;;;3.77;3.00;;;;;;;;;;5046311;28;20186;-74
2022/10/15 05:52:41;;;;;;;3.33;2.80;;;;;;;;;;5043839;28;20829;-74
2022/10/15 05:55:33;;;;;;;3.53;2.30;;;;;;;;;;5039434;28;20196;-74
2022/10/15 05:58:02;;;;;;;2.40;2.20;;;;;;;;;;5037888;28;20224;-74
2022/10/15 06:00:28;;;;;;;2.83;2.23;;;;;;;;;;5048638;28;20244;-74
2022/10/15 06:02:55;;;;;;;2.87;2.03;;;;;;;;;;5049925;28;20205;-74
2022/10/15 06:05:22;;;;;;;3.07;2.00;;;;;;;;;;5035432;28;20221;-74
2022/10/15 06:07:49;;;;;;;2.27;1.93;;;;;;;;;;5041528;28;20182;-74
2022/10/15 06:10:15;;;;;;;3.13;2.10;;;;;;;;;;5036171;28;20178;-74
2022/10/15 06:12:41;;;;;;;2.83;2.00;;;;;;;;;;5033086;28;20225;-74
2022/10/15 06:15:08;;;;;;;2.60;2.10;;;;;;;;;;5049723;28;20174;-74
2022/10/15 06:17:35;;;;;;;3.83;2.13;;;;;;;;;;5041190;28;20225;-74
2022/10/15 06:20:01;;;;;;;2.37;2.00;;;;;;;;;;5047408;28;20602;-74
2022/10/15 06:22:30;;;;;;;2.27;1.90;;;16.40;99.90;;;;;;5038139;28;20259;-75
2022/10/15 06:24:55;;;;;;;2.97;2.20;;;16.90;99.90;;;;;;5042179;28;20224;-75
2022/10/15 06:27:22;;;;;;;2.50;2.00;;;16.90;99.90;;;;;;5047457;28;20177;-75
2022/10/15 06:29:48;;;;;;;2.40;1.90;;;16.90;99.90;;;;;;5045829;28;20182;-75
2022/10/15 06:32:13;;;;;;;4.27;2.40;;;16.90;99.90;;;;;;5041972;28;20192;-75
2022/10/15 06:34:42;;;;;;;5.17;3.80;;;16.90;99.90;;;;;;5030971;28;20546;-75
2022/10/15 06:37:08;;;;;;;3.73;2.90;;;16.90;99.90;;;;;;5043480;28;20183;-75
2022/10/15 06:39:34;;;;;;;3.43;2.40;;;16.90;99.90;;;;;;5049724;28;20190;-75
2022/10/15 06:42:00;;;;;;;2.40;2.10;;;16.90;99.90;;;;;;5036751;28;20183;-75
2022/10/15 06:44:38;;;;;;;3.10;2.10;;;17.00;99.90;;;;;;5047641;28;20209;-75
2022/10/15 06:47:03;;;;;;;2.33;1.80;;;17.00;99.90;;;;;;5038930;28;20170;-75
2022/10/15 06:49:29;;;;;;;2.33;1.80;;;17.00;99.90;;;;;;5040066;28;20851;-75
2022/10/15 06:51:55;;;;;;;2.43;1.97;;;17.00;99.90;;;;;;5043387;28;20317;-75
2022/10/15 06:54:21;;;;;;;2.17;1.77;;;17.00;99.90;;;;;;5040432;28;20275;-74
2022/10/15 06:56:47;;;;;;;2.33;2.10;;;17.00;99.90;;;;;;5045505;28;20960;-75
2022/10/15 06:59:13;;;;;;;4.27;2.20;;;17.10;99.90;;;;;;5035356;28;20236;-75
2022/10/15 07:01:38;;;;;;;2.20;2.00;;;17.10;99.90;;;;;;5037902;28;20217;-75
2022/10/15 07:04:04;;;;;;;4.60;2.10;;;17.10;99.90;;;;;;5039778;28;20197;-75
2022/10/15 07:06:30;;;;;;;2.77;2.13;;;17.10;99.90;;;;;;5040347;28;20261;-75
2022/10/15 07:08:57;;;;;;;2.83;2.27;;;17.10;99.90;;;;;;5047770;28;20213;-75
2022/10/15 07:11:27;;;;;;;2.20;2.00;;;17.10;99.90;;;;;;5039683;28;20181;-75
2022/10/15 07:13:53;;;;;;;2.20;2.00;;;17.10;99.90;;;;;;5049052;28;20252;-75
2022/10/15 07:16:19;;;;;;;2.23;2.00;;;17.10;99.90;;;;;;5038161;28;20210;-75
2022/10/15 07:18:47;;;;;;;1.70;1.60;;;17.10;99.90;;;;;;5045336;28;20189;-75
2022/10/15 07:21:13;;;;;;;2.47;1.70;;;17.20;99.90;;;;;;5039148;28;20190;-75
2022/10/15 07:23:39;;;;;;;2.43;1.60;;;17.20;99.90;;;;;;5048843;28;20217;-75
2022/10/15 07:26:04;;;;;;;1.70;1.60;;;17.20;99.90;;;;;;5038761;28;20213;-75
2022/10/15 07:28:30;;;;;;;2.03;1.70;;;17.20;99.90;;;;;;5036064;28;20205;-74
2022/10/15 07:31:01;;;;;;;3.77;1.40;;;17.20;99.90;;;;;;5040315;28;20622;-74
2022/10/15 07:33:27;;;;;;;1.93;1.40;;;17.20;99.90;;;;;;5040532;28;20201;-74
2022/10/15 07:35:58;;;;;;;1.87;1.60;;;17.30;99.90;;;;;;5044340;28;20930;-75
2022/10/15 07:38:23;;;;;;;1.90;1.60;;;17.30;99.90;;;;;;5037678;28;20199;-75
2022/10/15 07:40:49;;;;;;;1.53;1.30;;;17.20;99.90;;;;;;5042789;28;20195;-75
2022/10/15 07:43:15;;;;;;;1.77;1.67;;;17.30;99.90;;;;;;5041789;28;20308;-75
2022/10/15 07:45:45;;;;;;;2.57;1.70;;;17.30;99.90;;;;;;5039385;28;20229;-75
2022/10/15 07:48:11;;;;;;;2.70;1.67;;;17.40;99.90;;;;;;5047920;28;20184;-75
2022/10/15 07:50:37;;;;;;;4.57;1.60;;;17.40;99.90;;;;;;5038977;28;20178;-75
2022/10/15 07:53:04;;;;;;;2.70;1.90;;;17.50;99.90;;;;;;5043181;28;20341;-75
2022/10/15 07:55:30;;;;;;;2.10;1.80;;;17.50;99.90;;;;;;5048544;28;20729;-75
2022/10/15 07:57:57;;;;;;;4.20;2.37;;;17.60;99.90;;;;;;5043457;28;20188;-75
2022/10/15 08:00:23;;;;;;;2.40;2.20;;;17.60;99.90;;;;;;5045125;28;20272;-75
2022/10/15 08:02:48;;;;;;;2.27;2.00;;;17.70;99.90;;;;;;5040458;28;20297;-75
2022/10/15 08:05:18;;;;;;;2.50;1.83;;;17.70;99.90;;;;;;5041084;28;20710;-75
2022/10/15 08:07:44;;;;;;;2.77;1.83;;;17.80;99.90;;;;;;5039967;28;20184;-75
2022/10/15 08:10:12;;;;;;;1.87;1.77;;;17.90;99.90;;;;;;5038005;28;20205;-75
2022/10/15 08:12:38;;;;;;;2.60;1.80;;;17.90;99.90;;;;;;5032606;28;20191;-75
2022/10/15 08:15:04;;;;;;;2.30;1.77;;;17.90;99.90;;;;;;5043523;28;20700;-75
2022/10/15 08:17:31;;;;;;;1.80;1.70;;;17.90;99.90;;;;;;5040167;28;20261;-75
2022/10/15 08:19:57;;;;;;;2.23;1.60;;;18.00;99.90;;;;;;5041460;28;20186;-75
2022/10/15 08:22:22;;;;;;;2.00;1.80;;;18.10;99.90;;;;;;5034567;28;20205;-75
2022/10/15 08:24:48;;;;;;;1.83;1.60;;;18.20;99.90;;;;;;5041104;28;20199;-75
2022/10/15 08:27:14;;;;;;;2.77;2.03;;;18.20;99.90;;;;;;5027839;28;20209;-75
2022/10/15 08:29:39;;;;;;;2.30;2.03;;;18.20;99.90;;;;;;5044392;28;20224;-75
2022/10/15 08:32:05;;;;;;;2.70;1.50;;;18.20;99.90;;;;;;5038787;28;20178;-75
2022/10/15 08:34:31;;;;;;;3.20;1.77;;;18.30;99.90;;;;;;5035753;28;20174;-75
2022/10/15 08:36:56;;;;;;;2.07;1.60;;;18.40;99.90;;;;;;5038039;28;20192;-75
2022/10/15 08:39:22;;;;;;;1.70;1.60;;;18.40;99.90;;;;;;5040480;28;20190;-75
2022/10/15 08:41:52;;;;;;;1.90;1.70;;;18.40;99.90;;;;;;5039962;28;20242;-75
2022/10/15 08:44:39;;;;;;;2.20;1.80;;;18.40;99.90;;;;;;5043100;28;20194;-75
2022/10/15 08:47:12;;;;;;;1.80;1.70;;;18.40;99.90;;;;;;5039274;28;20198;-75
2022/10/15 08:49:57;;;;;;;2.03;1.80;;;18.40;99.90;;;;;;5038424;28;20190;-75
2022/10/15 08:52:35;;;;;;;3.23;1.83;;;18.30;99.90;;;;;;5046580;28;20217;-75
2022/10/15 08:55:01;;;;;;;3.60;1.80;;;18.30;99.90;;;;;;5036013;28;20184;-75
2022/10/15 08:57:49;;;;;;;2.53;2.27;;;18.20;99.90;;;;;;5045930;28;20588;-75
2022/10/15 09:00:20;;;;;;;2.20;2.00;;;18.20;99.90;;;;;;5031855;28;20192;-75
2022/10/15 09:02:50;;;;;;;2.23;2.00;;;18.30;99.90;;;;;;5038889;28;20220;-75
2022/10/15 09:05:39;;;;;;;5.60;2.70;;;18.40;99.90;;;;;;5046106;28;20218;-75
2022/10/15 09:08:15;;;;;;;3.10;2.80;;;18.30;99.90;;;;;;5045234;28;20204;-75
2022/10/15 09:10:59;;;;;;;2.50;2.30;;;18.30;99.90;;;;;;5045852;28;20174;-75
2022/10/15 09:13:41;;;;;;;3.20;2.30;;;18.30;99.90;;;;;;5040881;28;20201;-75
2022/10/15 09:16:22;;;;;;;3.83;2.50;;;18.30;99.90;;;;;;5026044;28;20237;-75
2022/10/15 09:18:51;;;;;;;6.63;5.53;;;18.20;99.90;;;;;;5026106;28;20898;-75
2022/10/15 09:21:19;;;;;;;3.30;3.00;;;18.10;99.90;;;;;;5026966;28;20638;-75
2022/10/15 09:23:45;;;;;;;3.33;2.57;;;18.00;99.90;;;;;;5047417;28;20190;-75
2022/10/15 09:26:48;;;;;;;3.43;2.77;;;18.00;99.90;;;;;;5044703;28;20403;-75
2022/10/15 09:29:42;;;;;;;2.60;2.40;;;18.00;99.90;;;;;;4991875;28;20183;-75
2022/10/15 09:32:41;;;;;;;3.87;2.20;;;18.00;99.90;;;;;;5033974;28;20182;-75
2022/10/15 09:35:18;;;;;;;2.80;2.50;;;17.90;99.90;;;;;;5006749;28;20190;-75
2022/10/15 09:37:54;;;;;;;2.83;2.30;;;17.90;99.90;;;;;;5047064;28;20311;-75
2022/10/15 09:40:34;;;;;;;5.93;3.10;;;17.90;99.90;;;;;;5039679;28;20190;-75
2022/10/15 09:43:01;;;;;;;2.70;2.50;;;17.90;99.90;;;;;;5040633;28;20569;-75
2022/10/15 09:45:27;;;;;;;3.70;2.87;;;17.90;99.90;;;;;;5034798;28;20226;-75
2022/10/15 09:47:59;;;;;;;2.67;2.47;;;17.90;99.90;;;;;;5037576;28;20751;-75
2022/10/15 09:50:43;;;;;;;4.60;2.40;;;17.90;99.90;;;;;;5038971;28;20171;-75
2022/10/15 09:53:17;;;;;;;4.37;2.60;;;17.90;99.90;;;;;;5045070;28;20872;-75
2022/10/15 09:55:50;;;;;;;2.97;2.30;;;17.90;99.90;;;;;;5042050;28;20190;-75
2022/10/15 09:58:26;;;;;;;4.93;2.57;;;17.80;99.90;;;;;;5037796;28;20728;-75
2022/10/15 10:01:00;;;;;;;3.33;2.37;;;17.80;99.90;;;;;;5037607;28;20183;-75
2022/10/15 10:03:30;;;;;;;6.50;2.57;;;17.70;99.90;;;;;;5040323;28;20213;-75
2022/10/15 10:06:12;;;;;;;2.80;2.37;;;17.70;99.90;;;;;;5030056;28;20221;-75
2022/10/15 10:08:58;;;;;;;4.63;2.40;;;17.60;99.90;;;;;;5042239;28;20657;-75
2022/10/15 10:11:26;;;;;;;2.50;2.30;;;17.70;99.90;;;;;;5037189;28;20178;-75
2022/10/15 10:13:59;;;;;;;3.20;2.10;;;17.70;99.90;;;;;;5043518;28;20272;-75
2022/10/15 10:16:26;;;;;;;4.27;2.20;;;17.60;99.90;;;;;;5045273;28;20177;-75
2022/10/15 10:19:04;;;;;;;2.30;2.10;;;17.60;99.90;;;;;;5032907;28;20179;-75
2022/10/15 10:21:36;;;;;;;3.20;1.90;;;17.60;99.90;;;;;;5044422;28;20292;-75
2022/10/15 10:24:33;;;;;;;3.13;1.83;;;17.50;99.90;;;;;;5042922;28;20277;-75
2022/10/15 10:27:01;;;;;;;2.57;2.00;;;17.60;99.90;;;;;;5023499;28;20204;-75
2022/10/15 10:29:28;;;;;;;3.10;2.03;;;17.60;99.90;;;;;;5036709;28;20236;-75
2022/10/15 10:31:54;;;;;;;4.10;2.17;;;17.60;99.90;;;;;;5045477;28;20552;-75
2022/10/15 10:34:31;;;;;;;2.63;2.17;;;17.60;99.90;;;;;;5040098;28;20193;-74
2022/10/15 10:37:02;;;;;;;2.63;2.07;;;17.70;99.90;;;;;;5039227;28;20239;-74
2022/10/15 10:39:30;;;;;;;4.43;2.43;;;17.70;99.90;;;;;;5038068;28;20187;-71
2022/10/15 10:41:57;;;;;;;3.10;2.20;;;17.80;99.90;;;;;;5041317;28;20186;-73
2022/10/15 10:44:31;;;;;;;3.07;1.80;;;17.80;99.90;;;;;;5048860;28;20600;-72
2022/10/15 10:47:17;;;;;;;2.63;1.70;;;17.90;99.90;;;;;;5045292;28;20182;-74
2022/10/15 10:49:53;;;;;;;2.77;1.80;;;18.10;99.90;;;;;;5042030;28;20205;-74
2022/10/15 10:52:29;;;;;;;2.13;1.90;;;18.40;99.90;;;;;;5041044;28;21078;-74
2022/10/15 10:54:58;;;;;;;2.37;1.70;;;18.90;99.90;;;;;;5042308;28;20186;-74
2022/10/15 10:57:31;;;;;;;1.87;1.40;;;19.20;99.90;;;;;;5034544;28;20661;-74
2022/10/15 10:59:56;;;;;;;1.97;1.67;;;19.30;99.90;;;;;;5034783;28;20190;-74
2022/10/15 11:02:22;;;;;;;3.80;1.50;;;19.40;99.90;;;;;;5047383;28;20208;-74
2022/10/15 11:04:48;;;;;;;2.67;1.70;;;19.40;99.90;;;;;;5045039;28;20213;-74
2022/10/15 11:07:44;;;;;;;2.50;1.73;;;19.30;99.90;;;;;;5041049;28;20186;-74
2022/10/15 11:10:24;;;;;;;3.20;1.80;;;19.30;99.90;;;;;;5036090;28;20186;-74
2022/10/15 11:13:15;;;;;;;2.57;1.80;;;19.20;99.90;;;;;;5048070;28;20209;-74
2022/10/15 11:16:06;;;;;;;3.53;1.50;;;19.20;99.90;;;;;;5040858;28;20272;-74
2022/10/15 11:18:56;;;;;;;1.70;1.50;;;19.20;99.90;;;;;;5041314;28;20198;-74
2022/10/15 11:21:36;;;;;;;2.00;1.60;;;19.20;99.90;;;;;;5041445;28;20182;-74
2022/10/15 11:24:18;;;;;;;2.87;1.70;;;19.20;99.90;;;;;;5044743;28;20340;-74
2022/10/15 11:27:10;;;;;;;2.90;1.73;;;19.10;99.90;;;;;;5035447;28;20333;-74
2022/10/15 11:29:44;;;;;;;2.30;1.43;;;19.00;99.90;;;;;;5046925;28;20178;-74
2022/10/15 11:32:35;;;;;;;3.17;1.43;;;18.90;99.90;;;;;;5043635;28;20178;-74
2022/10/15 11:35:04;;;;;;;2.40;1.40;;;18.80;99.90;;;;;;5042207;28;20190;-74
2022/10/15 11:37:43;;;;;;;3.00;1.30;;;18.80;99.90;;;;;;5044900;28;20212;-74
2022/10/15 11:40:37;;;;;;;2.23;1.40;;;18.80;99.90;;;;;;5045405;28;20582;-74
2022/10/15 11:43:40;;;;;;;2.87;1.67;;;18.70;99.90;;;;;;5041588;28;20218;-74
2022/10/15 11:46:18;;;;;;;2.23;1.50;;;18.70;99.90;;;;;;5041323;28;20212;-74
2022/10/15 11:48:56;;;;;;;3.53;2.30;;;18.60;99.90;;;;;;5039542;28;20171;-74
2022/10/15 11:51:40;;;;;;;2.77;1.73;;;18.60;99.90;;;;;;5046030;28;20186;-74
2022/10/15 11:54:34;;;;;;;3.40;1.30;;;18.80;99.90;;;;;;5047174;28;20193;-74
2022/10/15 11:57:03;;;;;;;5.03;2.43;;;19.00;99.90;;;;;;5043651;28;20178;-74
2022/10/15 11:59:48;;;;;;;4.07;1.90;;;19.00;99.90;;;;;;5045321;28;20695;-74
2022/10/15 12:02:31;;;;;;;2.83;1.40;;;19.00;99.90;;;;;;5042227;28;20185;-75
2022/10/15 12:05:03;;;;;;;2.63;2.13;;;18.90;99.90;;;;;;5040684;28;20206;-75
2022/10/15 12:07:40;;;;;;;1.77;1.43;;;18.90;99.90;;;;;;5039622;28;20211;-76
2022/10/15 12:10:11;;;;;;;3.37;1.37;;;18.80;99.90;;;;;;5042742;28;20643;-75
2022/10/15 12:12:49;;;;;;;1.50;1.30;;;18.80;99.90;;;;;;5043439;28;20343;-76
2022/10/15 12:15:45;;;;;;;3.90;1.57;;;18.70;99.90;;;;;;5031951;28;20595;-75
2022/10/15 12:18:30;;;;;;;1.90;1.40;;;18.70;99.90;;;;;;5034996;28;20197;-75
2022/10/15 12:20:57;;;;;;;2.43;1.30;;;18.70;99.90;;;;;;5042001;28;20190;-75
2022/10/15 12:23:39;;;;;;;2.23;1.50;;;18.60;99.90;;;;;;5040942;28;20247;-76
2022/10/15 12:26:23;;;;;;;3.90;1.40;;;18.60;99.90;;;;;;5040159;28;20308;-74
2022/10/15 12:28:55;;;;;;;2.60;1.27;;;18.60;99.90;;;;;;5040621;28;20184;-75
2022/10/15 12:31:21;;;;;;;2.33;1.27;;;18.60;99.90;;;;;;5043454;28;20815;-74
2022/10/15 12:33:53;;;;;;;2.60;1.30;;;18.70;99.90;;;;;;5039734;28;20214;-74
2022/10/15 12:36:27;;;;;;;2.10;1.23;;;18.80;99.90;;;;;;5040809;28;20204;-73
2022/10/15 12:39:21;;;;;;;4.03;1.20;;;18.70;99.90;;;;;;5044860;28;20205;-73
2022/10/15 12:41:48;;;;;;;1.90;1.40;;;18.70;99.90;;;;;;5040820;28;20185;-72
2022/10/15 12:44:31;;;;;;;1.70;1.20;;;18.60;99.90;;;;;;5033863;28;20215;-75
2022/10/15 12:46:58;;;;;;;2.20;2.00;;;18.60;99.90;;;;;;5043553;28;20464;-72
2022/10/15 12:49:27;;;;;;;2.80;1.93;;;18.60;99.90;;;;;;5043638;28;20185;-75
2022/10/15 12:51:53;;;;;;;20.83;18.83;;;18.50;99.90;;;;;;5039235;28;20179;-73
2022/10/15 12:54:33;;;;;;;5.40;2.60;;;18.50;99.90;;;;;;5040246;28;20332;-76
2022/10/15 12:57:03;;;;;;;3.50;2.83;;;18.40;99.90;;;;;;5036379;28;20187;-72
2022/10/15 12:59:53;;;;;;;4.17;3.03;;;18.50;99.90;;;;;;5040435;28;20607;-75
2022/10/15 13:02:39;;;;;;;4.87;4.47;;;18.50;99.90;;;;;;5042223;28;20207;-75
2022/10/15 13:05:07;;;;;;;10.93;9.93;;;18.60;99.90;;;;;;5043484;28;20237;-75
2022/10/15 13:07:37;;;;;;;3.00;1.90;;;18.60;99.90;;;;;;5043378;28;20232;-74
2022/10/15 13:10:10;;;;;;;6.33;1.70;;;18.60;99.90;;;;;;5043705;28;20181;-75
2022/10/15 13:12:36;;;;;;;2.13;1.30;;;18.60;99.90;;;;;;5037448;28;20225;-79
2022/10/15 13:15:05;;;;;;;3.83;2.17;;;18.60;99.90;;;;;;5044282;28;20201;-73
2022/10/15 13:17:31;;;;;;;3.70;3.23;;;18.60;99.90;;;;;;5040617;28;20761;-72
2022/10/15 13:20:03;;;;;;;4.00;2.63;;;18.70;99.90;;;;;;5041288;28;20190;-75
2022/10/15 13:22:32;;;;;;;1.70;1.53;;;18.80;99.90;;;;;;5052705;28;20304;-75
2022/10/15 13:24:58;;;;;;;4.20;2.07;;;18.70;99.90;;;;;;5038952;28;20213;-75
2022/10/15 13:27:25;;;;;;;3.20;1.70;;;18.70;99.90;;;;;;5038323;28;20190;-74
2022/10/15 13:29:59;;;;;;;2.17;1.97;;;18.70;99.90;;;;;;5041357;28;20269;-74
2022/10/15 13:32:28;;;;;;;8.23;1.70;;;18.70;99.90;;;;;;5034545;28;20206;-74
2022/10/15 13:34:56;;;;;;;3.37;1.80;;;18.70;99.90;;;;;;5044149;28;20269;-74
2022/10/15 13:37:34;;;;;;;2.17;1.30;;;18.60;99.90;;;;;;5037826;28;20260;-74
2022/10/15 13:40:03;;;;;;;1.27;1.10;;;18.60;99.90;;;;;;5037876;28;20170;-74
2022/10/15 13:42:30;;;;;;;1.97;1.40;;;18.50;99.90;;;;;;5033924;28;20267;-74
2022/10/15 13:45:16;;;;;;;2.37;1.70;;;18.60;99.90;;;;;;5042553;28;20198;-75
2022/10/15 13:47:51;;;;;;;2.07;1.43;;;18.60;99.90;;;;;;5042636;28;20186;-74